首页
METAR-TAF:

METAR-TAF

机场 :

素万那普机场

新曼谷, 泰国

纬度: 13-40-52N, 经度: 100-44-50E, 海拔: 2米

当前天气观测

该预报发布于16分钟前的01:30 UTC
风速5节,风向东南,在之间变化
温度 29°C
湿度 74%
气压 1013 hPa
能见度10公里或以上
少量云层高于2000英尺

METAR: VTBS 260130Z 14005KT 090V180 9999 FEW020 29/24 Q1013 NOSIG

时间: 08:46 (01:46 UTC)

预报

该预报发布于2小时和46分钟前的23:00 UTC
预报有效从26日的 00点(UTC)到 27日的 06点(UTC)
风速5节,风向东南
能見度: 9000
少量云层高于2000英尺
散云层高于8000英尺
成为
从 26日的 01点(UTC)到 26日的 03点(UTC)
风速8节,风向南转西南
短暂存在
从 26日的 05点(UTC)到 26日的 08点(UTC)
风速15节,风向多变
能見度: 5000
少量云层高于1800英尺, 积雨云.
散云层高于3500英尺
雷暴, 雨,

TAF: VTBS 252300Z 2600/2706 14005KT 9000 FEW020 SCT080 BECMG 2601/2603 21008KT TEMPO 2605/2608 VRB15KT 5000 TSRA FEW018CB SCT035

超过4000个机场的气象观测和天气预报(METAR&TAF报告)。

可查询的气象台以黄色和红色小点在地图上表示。

将鼠标移到小点上方,可查看气象台名称。

然后点击查看天气观测和预报。

如需切换地图:点击带黑十字的绿色按钮放大地图;点击带横线的绿色按钮缩小地图;或者点击绿色箭头查看邻近地区的地图。


METAR-TAF: